createdAt,value
2022-08-09T00:02:32.460Z,20.13
2022-08-09T00:07:44.498Z,20.33
2022-08-09T00:12:47.191Z,20.42
2022-08-09T00:18:07.548Z,20.60
2022-08-09T00:23:54.643Z,20.73
2022-08-09T00:28:36.914Z,20.70
2022-08-09T00:33:50.599Z,20.99
2022-08-09T00:38:53.698Z,20.78
2022-08-09T00:44:19.800Z,20.84
2022-08-09T00:49:17.881Z,20.91
2022-08-09T00:54:35.024Z,21.00
2022-08-09T00:59:46.445Z,20.90
2022-08-09T01:05:13.861Z,20.64
2022-08-09T01:10:43.406Z,20.51
2022-08-09T01:15:51.844Z,20.70
2022-08-09T01:21:12.815Z,20.54
2022-08-09T01:26:14.853Z,20.62
2022-08-09T01:32:29.128Z,20.46
2022-08-09T01:36:42.535Z,20.46
2022-08-09T01:41:53.468Z,20.44
2022-08-09T01:46:58.829Z,20.25
2022-08-09T01:52:07.447Z,20.20
2022-08-09T01:57:17.083Z,19.98
2022-08-09T02:02:31.331Z,19.98
2022-08-09T02:08:39.387Z,19.92
2022-08-09T02:13:09.044Z,19.80
2022-08-09T02:18:12.774Z,19.86
2022-08-09T02:23:16.936Z,19.73
2022-08-09T02:28:31.419Z,19.73
2022-08-09T02:34:07.529Z,19.72
2022-08-09T02:39:05.306Z,19.72
2022-08-09T02:44:19.830Z,19.62
2022-08-09T02:49:38.314Z,19.42
2022-08-09T02:54:51.168Z,19.30
2022-08-09T03:00:20.686Z,19.32
2022-08-09T03:05:20.258Z,19.29
2022-08-09T03:10:22.385Z,19.02
2022-08-09T03:15:25.541Z,19.21
2022-08-09T03:20:48.242Z,19.23
2022-08-09T03:26:02.089Z,19.33
2022-08-09T03:31:10.523Z,19.36
2022-08-09T03:36:27.473Z,19.37
2022-08-09T03:41:44.945Z,19.25
2022-08-09T03:46:50.806Z,19.15
2022-08-09T03:52:00.431Z,19.37
2022-08-09T03:57:18.483Z,19.51
2022-08-09T04:02:30.355Z,19.70
2022-08-09T04:07:47.426Z,19.69
2022-08-09T04:12:54.950Z,19.81
2022-08-09T04:17:57.591Z,19.80
2022-08-09T04:22:59.986Z,19.70
2022-08-09T04:28:03.710Z,19.88
2022-08-09T04:33:06.040Z,20.11
2022-08-09T04:38:10.028Z,20.17
2022-08-09T04:43:12.479Z,20.59
2022-08-09T04:48:17.094Z,20.74
2022-08-09T04:53:19.768Z,21.02
2022-08-09T04:58:21.947Z,21.31
2022-08-09T05:03:41.085Z,21.79
2022-08-09T05:08:47.804Z,21.64
2022-08-09T05:13:50.141Z,21.79
2022-08-09T05:18:58.079Z,21.61
2022-08-09T05:24:05.256Z,21.74
2022-08-09T05:29:07.566Z,21.96
2022-08-09T05:34:20.219Z,21.88
2022-08-09T05:39:29.524Z,22.11
2022-08-09T05:44:35.078Z,22.48
2022-08-09T05:50:23.734Z,22.46
2022-08-09T05:55:03.238Z,22.61
2022-08-09T06:00:10.517Z,22.60
2022-08-09T06:05:16.326Z,22.66
2022-08-09T06:10:18.644Z,22.94
2022-08-09T06:15:21.372Z,22.83
2022-08-09T06:20:23.631Z,23.89
2022-08-09T06:25:26.531Z,24.38
2022-08-09T06:30:29.046Z,24.59
2022-08-09T06:35:55.787Z,24.53
2022-08-09T06:40:55.075Z,24.61
2022-08-09T06:46:06.708Z,25.35
2022-08-09T06:51:12.931Z,25.53
2022-08-09T06:56:16.853Z,25.44
2022-08-09T07:01:24.294Z,25.74
2022-08-09T07:06:29.864Z,25.51
2022-08-09T07:11:45.415Z,24.95
2022-08-09T07:16:58.080Z,25.15
2022-08-09T07:22:00.613Z,25.09
2022-08-09T07:27:04.477Z,25.68
2022-08-09T07:32:13.189Z,26.15
2022-08-09T07:37:15.825Z,26.26
2022-08-09T07:42:18.445Z,26.68
2022-08-09T07:47:21.590Z,27.40
2022-08-09T07:52:25.285Z,27.72
2022-08-09T07:57:35.573Z,26.61
2022-08-09T08:02:42.442Z,27.47
2022-08-09T08:09:00.348Z,27.44
2022-08-09T08:13:06.920Z,28.14
2022-08-09T08:18:14.323Z,27.55
2022-08-09T08:23:18.635Z,27.81
2022-08-09T08:28:26.006Z,28.14
2022-08-09T08:33:52.231Z,28.42
2022-08-09T08:38:56.546Z,27.79
2022-08-09T08:44:02.560Z,27.38
2022-08-09T08:49:12.752Z,28.19
2022-08-09T08:54:30.070Z,28.76
2022-08-09T08:59:46.703Z,29.11
2022-08-09T09:04:54.961Z,27.26
2022-08-09T09:10:04.576Z,27.84
2022-08-09T09:15:07.535Z,28.60
2022-08-09T09:20:15.255Z,27.82
2022-08-09T09:26:01.880Z,27.30
2022-08-09T09:30:58.336Z,27.29
2022-08-09T09:36:19.752Z,27.57
2022-08-09T09:41:33.391Z,26.89
2022-08-09T09:46:54.974Z,27.31
2022-08-09T09:52:03.605Z,26.52
2022-08-09T09:58:03.044Z,26.84
2022-08-09T10:02:46.471Z,27.63
2022-08-09T10:08:11.131Z,27.99
2022-08-09T10:13:11.034Z,28.72
2022-08-09T10:18:26.930Z,29.16
2022-08-09T10:23:28.983Z,28.10
2022-08-09T10:28:35.172Z,29.20
2022-08-09T10:34:07.863Z,28.74
2022-08-09T10:38:59.921Z,28.65
2022-08-09T10:44:07.539Z,28.26
2022-08-09T10:49:50.150Z,28.88
2022-08-09T10:54:53.420Z,28.47
2022-08-09T10:59:58.533Z,28.47
2022-08-09T11:05:25.416Z,28.23
2022-08-09T11:10:53.394Z,28.01
2022-08-09T11:16:35.665Z,27.46
2022-08-09T11:21:55.158Z,27.64
2022-08-09T11:26:59.721Z,28.59
2022-08-09T11:32:10.120Z,28.20
2022-08-09T11:37:26.061Z,27.91
2022-08-09T11:42:48.684Z,28.10
2022-08-09T11:48:06.487Z,27.79
2022-08-09T11:53:57.647Z,27.54
2022-08-09T11:58:51.393Z,27.75
2022-08-09T12:03:59.430Z,27.79
2022-08-09T12:09:06.595Z,27.97
2022-08-09T12:14:36.438Z,27.89
2022-08-09T12:19:40.098Z,28.61
2022-08-09T12:24:44.004Z,28.71
2022-08-09T12:30:04.100Z,27.66
2022-08-09T12:35:19.230Z,27.82
2022-08-09T12:40:27.399Z,27.74
2022-08-09T12:45:33.855Z,27.82
2022-08-09T12:50:39.037Z,28.17
2022-08-09T12:56:16.042Z,28.12
2022-08-09T13:01:20.250Z,27.49
2022-08-09T13:06:34.526Z,27.40
2022-08-09T13:11:48.282Z,27.04
2022-08-09T13:16:53.181Z,27.63
2022-08-09T13:22:37.482Z,27.47
2022-08-09T13:27:55.717Z,27.96
2022-08-09T13:32:58.440Z,28.68
2022-08-09T13:38:00.634Z,28.14
2022-08-09T13:43:05.126Z,29.01
2022-08-09T13:48:11.985Z,28.57
2022-08-09T13:53:16.957Z,29.15
2022-08-09T13:58:19.392Z,28.97
2022-08-09T14:04:03.517Z,28.63
2022-08-09T14:08:44.375Z,27.70
2022-08-09T14:14:24.515Z,27.51
2022-08-09T14:19:09.395Z,27.35
2022-08-09T14:24:22.178Z,26.60
2022-08-09T14:30:34.966Z,26.75
2022-08-09T14:34:56.937Z,26.68
2022-08-09T14:39:59.086Z,26.22
2022-08-09T14:46:45.983Z,26.33
2022-08-09T14:50:25.418Z,26.12
2022-08-09T14:55:32.676Z,26.58
2022-08-09T15:00:36.773Z,26.77
2022-08-09T15:05:39.699Z,26.89
2022-08-09T15:11:00.742Z,26.60
2022-08-09T15:16:07.874Z,26.52
2022-08-09T15:21:56.920Z,26.87
2022-08-09T15:26:32.251Z,26.53
2022-08-09T15:31:42.053Z,26.39
2022-08-09T15:36:48.242Z,26.26
2022-08-09T15:41:50.875Z,26.27
2022-08-09T15:46:52.822Z,26.41
2022-08-09T15:52:04.776Z,26.75
2022-08-09T15:57:08.620Z,26.67
2022-08-09T16:02:13.389Z,26.12
2022-08-09T16:07:16.142Z,26.37
2022-08-09T16:12:19.208Z,26.19
2022-08-09T16:17:22.057Z,26.57
2022-08-09T16:22:24.700Z,26.28
2022-08-09T16:27:30.153Z,26.49
2022-08-09T16:32:54.250Z,26.53
2022-08-09T16:37:56.954Z,26.63
2022-08-09T16:43:02.399Z,26.83
2022-08-09T16:48:40.668Z,26.60
2022-08-09T16:53:32.286Z,26.33
2022-08-09T16:58:36.807Z,25.98
2022-08-09T17:03:39.141Z,25.65
2022-08-09T17:08:58.799Z,25.52
2022-08-09T17:14:07.026Z,25.63
2022-08-09T17:19:10.534Z,25.51
2022-08-09T17:24:20.672Z,25.25
2022-08-09T17:29:31.839Z,25.17
2022-08-09T17:35:03.755Z,24.91
2022-08-09T17:40:06.804Z,24.75
2022-08-09T17:45:27.187Z,24.54
2022-08-09T17:50:36.896Z,24.32
2022-08-09T17:55:49.314Z,24.15
2022-08-09T18:00:52.360Z,23.98
2022-08-09T18:05:58.485Z,23.86
2022-08-09T18:11:04.455Z,23.64
2022-08-09T18:16:09.892Z,23.38
2022-08-09T18:21:22.716Z,23.22
2022-08-09T18:26:25.573Z,22.95
2022-08-09T18:31:51.600Z,22.82
2022-08-09T18:36:49.961Z,22.55
2022-08-09T18:41:54.207Z,22.35
2022-08-09T18:47:03.661Z,22.24
2022-08-09T18:52:12.351Z,22.24
2022-08-09T18:57:18.584Z,22.12
2022-08-09T19:02:31.089Z,22.02
2022-08-09T19:07:35.110Z,21.85
2022-08-09T19:12:39.275Z,21.82
2022-08-09T19:17:54.473Z,21.70
2022-08-09T19:23:07.293Z,21.57
2022-08-09T19:28:13.414Z,21.47
2022-08-09T19:33:19.523Z,21.32
2022-08-09T19:38:22.629Z,21.24
2022-08-09T19:44:01.917Z,21.17
2022-08-09T19:49:01.684Z,20.92
2022-08-09T19:54:04.756Z,20.86
2022-08-09T19:59:39.393Z,20.85
2022-08-09T20:04:40.260Z,20.76
2022-08-09T20:09:45.264Z,20.59
2022-08-09T20:14:50.301Z,20.58
2022-08-09T20:19:55.456Z,20.42
2022-08-09T20:24:57.482Z,20.27
2022-08-09T20:30:01.076Z,20.34
2022-08-09T20:35:07.587Z,20.35
2022-08-09T20:40:19.073Z,20.45
2022-08-09T20:45:59.801Z,20.39
2022-08-09T20:50:55.644Z,20.25
2022-08-09T20:56:01.029Z,20.04
2022-08-09T21:01:33.487Z,19.90
2022-08-09T21:06:31.239Z,19.84
2022-08-09T21:16:55.828Z,19.71
2022-08-09T21:21:58.163Z,19.57
2022-08-09T21:27:10.390Z,19.50
2022-08-09T21:32:33.498Z,19.35
2022-08-09T21:37:47.120Z,19.25
2022-08-09T21:43:01.686Z,19.05
2022-08-09T21:48:04.406Z,19.00
2022-08-09T21:53:23.867Z,18.88
2022-08-09T21:58:31.311Z,18.93
2022-08-09T22:03:33.616Z,18.76
2022-08-09T22:08:38.764Z,18.74
2022-08-09T22:13:46.144Z,18.71
2022-08-09T22:18:54.390Z,18.58
2022-08-09T22:23:59.549Z,18.57
2022-08-09T22:29:05.325Z,18.28
2022-08-09T22:34:14.776Z,18.57
2022-08-09T22:39:47.318Z,18.44
2022-08-09T22:44:39.045Z,18.56
2022-08-09T22:49:52.126Z,18.41
2022-08-09T22:54:54.465Z,18.43
2022-08-09T22:59:59.264Z,18.39
2022-08-09T23:05:01.750Z,18.26
2022-08-09T23:10:08.296Z,18.15
2022-08-09T23:15:10.700Z,18.09
2022-08-09T23:20:13.223Z,18.10
2022-08-09T23:25:15.177Z,17.97
2022-08-09T23:30:18.153Z,18.12
2022-08-09T23:35:20.345Z,17.98
2022-08-09T23:40:22.428Z,17.78
2022-08-09T23:45:36.395Z,17.80
2022-08-09T23:50:38.904Z,17.88
2022-08-09T23:55:49.383Z,18.09
